createdAt,value
2023-06-30T00:01:55.032Z,20.50
2023-06-30T00:06:00.582Z,20.50
2023-06-30T00:10:07.973Z,20.10
2023-06-30T00:14:13.485Z,20.20
2023-06-30T00:18:18.991Z,20.30
2023-06-30T00:22:24.531Z,19.13
2023-06-30T00:26:32.852Z,18.60
2023-06-30T00:30:39.422Z,19.00
2023-06-30T00:34:44.994Z,12.18
2023-06-30T00:38:55.890Z,9.15
2023-06-30T00:43:02.062Z,4.72
2023-06-30T00:47:07.790Z,4.90
2023-06-30T00:51:13.875Z,4.05
2023-06-30T00:55:19.888Z,2.80
2023-06-30T00:59:25.401Z,2.40
2023-06-30T01:04:02.481Z,2.38
2023-06-30T01:08:29.543Z,2.10
2023-06-30T01:12:36.255Z,2.20
2023-06-30T01:16:43.474Z,2.10
2023-06-30T01:20:49.977Z,1.98
2023-06-30T01:25:01.251Z,2.27
2023-06-30T01:29:08.004Z,1.90
2023-06-30T01:33:15.280Z,1.67
2023-06-30T01:37:20.844Z,2.07
2023-06-30T01:41:26.704Z,2.10
2023-06-30T01:45:33.101Z,1.60
2023-06-30T01:49:39.257Z,1.57
2023-06-30T01:53:44.811Z,2.00
2023-06-30T01:57:50.409Z,2.27
2023-06-30T02:01:56.025Z,2.00
2023-06-30T02:06:01.935Z,2.00
2023-06-30T02:10:08.755Z,1.63
2023-06-30T02:14:14.250Z,1.30
2023-06-30T02:18:19.997Z,1.30
2023-06-30T02:22:25.554Z,1.60
2023-06-30T02:26:31.018Z,1.60
2023-06-30T02:30:36.511Z,1.73
2023-06-30T02:34:42.004Z,1.30
2023-06-30T02:38:47.517Z,1.53
2023-06-30T02:42:54.529Z,1.87
2023-06-30T02:47:00.022Z,1.47
2023-06-30T02:51:05.659Z,1.70
2023-06-30T02:55:11.608Z,1.60
2023-06-30T02:59:17.097Z,1.50
2023-06-30T03:03:22.641Z,1.90
2023-06-30T03:07:28.272Z,1.27
2023-06-30T03:11:33.830Z,1.73
2023-06-30T03:15:39.344Z,1.80
2023-06-30T03:19:44.855Z,1.90
2023-06-30T03:23:50.361Z,1.60
2023-06-30T03:27:55.930Z,1.80
2023-06-30T03:32:01.403Z,1.60
2023-06-30T03:36:07.026Z,1.80
2023-06-30T03:40:13.784Z,1.60
2023-06-30T03:44:19.341Z,1.87
2023-06-30T03:48:25.746Z,2.57
2023-06-30T03:52:31.297Z,2.63
2023-06-30T03:56:36.825Z,2.03
2023-06-30T04:00:42.314Z,2.70
2023-06-30T04:04:47.964Z,1.70
2023-06-30T04:08:53.519Z,2.00
2023-06-30T04:12:58.981Z,1.60
2023-06-30T04:17:04.930Z,1.97
2023-06-30T04:21:10.572Z,2.00
2023-06-30T04:25:16.105Z,2.10
2023-06-30T04:29:21.585Z,2.30
2023-06-30T04:33:27.082Z,2.10
2023-06-30T04:37:32.640Z,1.70
2023-06-30T04:41:38.722Z,2.25
2023-06-30T04:45:44.483Z,2.30
2023-06-30T04:49:50.139Z,1.63
2023-06-30T04:53:55.851Z,1.67
2023-06-30T04:58:01.391Z,1.70
2023-06-30T05:02:07.608Z,2.20
2023-06-30T05:06:13.131Z,1.60
2023-06-30T05:10:18.637Z,1.70
2023-06-30T05:14:24.146Z,1.60
2023-06-30T05:18:29.659Z,1.87
2023-06-30T05:22:36.122Z,1.53
2023-06-30T05:26:42.245Z,1.60
2023-06-30T05:30:47.704Z,1.70
2023-06-30T05:34:53.288Z,1.77
2023-06-30T05:38:59.035Z,2.03
2023-06-30T05:43:04.581Z,2.13
2023-06-30T05:47:10.090Z,1.80
2023-06-30T05:51:15.556Z,1.63
2023-06-30T05:55:21.087Z,1.50
2023-06-30T05:59:29.198Z,1.40
2023-06-30T06:03:34.888Z,1.57
2023-06-30T06:07:41.607Z,1.40
2023-06-30T06:11:47.217Z,1.63
2023-06-30T06:15:52.705Z,1.47
2023-06-30T06:19:59.040Z,2.00
2023-06-30T06:24:04.947Z,1.33
2023-06-30T06:28:10.507Z,1.37
2023-06-30T06:32:19.917Z,1.50
2023-06-30T06:36:25.465Z,1.50
2023-06-30T06:40:31.007Z,1.50
2023-06-30T06:44:37.763Z,1.20
2023-06-30T06:48:43.910Z,1.93
2023-06-30T06:52:49.438Z,1.37
2023-06-30T06:56:54.930Z,1.50
2023-06-30T07:01:00.690Z,1.40
2023-06-30T07:05:06.449Z,1.47
2023-06-30T07:09:11.935Z,1.33
2023-06-30T07:13:20.305Z,1.40
2023-06-30T07:17:25.913Z,1.80
2023-06-30T07:21:32.761Z,1.87
2023-06-30T07:25:38.295Z,2.10
2023-06-30T07:29:43.802Z,1.70
2023-06-30T07:33:49.291Z,1.40
2023-06-30T07:37:55.052Z,1.40
2023-06-30T07:42:00.824Z,1.40
2023-06-30T07:46:06.390Z,1.33
2023-06-30T07:50:14.208Z,1.10
2023-06-30T07:54:20.786Z,1.33
2023-06-30T07:58:26.610Z,1.33
2023-06-30T08:02:32.350Z,1.20
2023-06-30T08:06:37.971Z,1.10
2023-06-30T08:10:44.906Z,1.63
2023-06-30T08:14:51.441Z,1.40
2023-06-30T08:18:57.053Z,1.10
2023-06-30T08:23:02.671Z,1.57
2023-06-30T08:27:08.603Z,1.70
2023-06-30T08:31:14.164Z,1.60
2023-06-30T08:35:19.882Z,1.40
2023-06-30T08:39:32.481Z,1.27
2023-06-30T08:43:42.369Z,1.57
2023-06-30T08:47:47.922Z,1.60
2023-06-30T08:51:57.488Z,1.50
2023-06-30T08:56:05.389Z,1.60
2023-06-30T09:00:11.552Z,1.50
2023-06-30T09:04:17.394Z,1.63
2023-06-30T09:08:50.947Z,1.17
2023-06-30T09:12:58.519Z,1.57
2023-06-30T09:17:04.444Z,1.63
2023-06-30T09:21:11.597Z,1.10
2023-06-30T09:25:29.100Z,1.30
2023-06-30T09:29:37.458Z,1.60
2023-06-30T09:33:44.544Z,1.23
2023-06-30T09:37:50.157Z,1.57
2023-06-30T09:41:55.767Z,1.40
2023-06-30T09:46:02.898Z,1.27
2023-06-30T09:50:10.292Z,1.50
2023-06-30T09:54:25.983Z,1.53
2023-06-30T09:58:41.174Z,1.97
2023-06-30T10:02:46.739Z,1.20
2023-06-30T10:06:53.885Z,1.60
2023-06-30T10:10:59.646Z,1.60
2023-06-30T10:15:10.247Z,1.40
2023-06-30T10:19:16.737Z,1.40
2023-06-30T10:23:24.941Z,1.63
2023-06-30T10:27:30.961Z,1.13
2023-06-30T10:31:36.736Z,1.43
2023-06-30T10:35:43.269Z,1.37
2023-06-30T10:39:49.055Z,1.30
2023-06-30T10:44:09.772Z,1.50
2023-06-30T10:48:15.876Z,1.10
2023-06-30T10:56:35.082Z,1.43
2023-06-30T11:01:07.325Z,1.37
2023-06-30T11:05:21.819Z,1.50
2023-06-30T11:09:27.329Z,1.10
2023-06-30T11:13:39.170Z,1.10
2023-06-30T11:17:53.298Z,1.40
2023-06-30T11:22:33.082Z,1.03
2023-06-30T11:26:40.299Z,1.30
2023-06-30T11:30:46.024Z,1.43
2023-06-30T11:34:52.025Z,1.27
2023-06-30T11:38:57.540Z,1.47
2023-06-30T11:43:04.414Z,1.40
2023-06-30T11:47:10.022Z,1.00
2023-06-30T11:51:15.858Z,1.20
2023-06-30T11:55:22.000Z,1.20
2023-06-30T11:59:28.457Z,1.03
2023-06-30T12:03:34.269Z,1.23
2023-06-30T12:07:39.965Z,1.00
2023-06-30T12:11:51.529Z,1.07
2023-06-30T12:15:58.318Z,1.40
2023-06-30T12:20:05.359Z,1.37
2023-06-30T12:24:20.099Z,1.17
2023-06-30T12:28:25.594Z,1.30
2023-06-30T12:32:32.292Z,1.10
2023-06-30T12:36:37.837Z,1.10
2023-06-30T12:40:43.427Z,1.03
2023-06-30T12:44:48.932Z,1.20
2023-06-30T12:48:54.424Z,1.47
2023-06-30T12:53:01.740Z,1.27
2023-06-30T12:57:07.876Z,1.10
2023-06-30T13:01:13.567Z,1.10
2023-06-30T13:05:19.270Z,1.37
2023-06-30T13:09:24.806Z,1.50
2023-06-30T13:13:30.325Z,1.47
2023-06-30T13:17:35.842Z,1.10
2023-06-30T13:21:41.487Z,1.40
2023-06-30T13:25:47.291Z,1.13
2023-06-30T13:29:53.557Z,1.30
2023-06-30T13:33:59.105Z,1.20
2023-06-30T13:38:04.614Z,1.20
2023-06-30T13:42:10.817Z,1.40
2023-06-30T13:46:16.421Z,1.00
2023-06-30T13:50:21.998Z,1.23
2023-06-30T13:54:27.556Z,1.30
2023-06-30T13:58:33.200Z,1.30
2023-06-30T14:02:38.704Z,1.40
2023-06-30T14:06:44.315Z,3.67
2023-06-30T14:10:49.887Z,2.70
2023-06-30T14:14:55.401Z,1.40
2023-06-30T14:19:02.643Z,1.40
2023-06-30T14:23:08.159Z,1.43
2023-06-30T14:27:13.669Z,1.77
2023-06-30T14:31:19.362Z,1.70
2023-06-30T14:35:24.918Z,1.37
2023-06-30T14:39:30.765Z,1.40
2023-06-30T14:43:36.328Z,1.47
2023-06-30T14:47:42.360Z,1.60
2023-06-30T14:51:48.416Z,1.93
2023-06-30T14:55:53.950Z,1.30
2023-06-30T14:59:59.519Z,1.37
2023-06-30T15:04:05.395Z,1.37
2023-06-30T15:08:11.060Z,1.20
2023-06-30T15:12:16.571Z,1.50
2023-06-30T15:16:22.127Z,1.60
2023-06-30T15:20:28.429Z,1.70
2023-06-30T15:24:35.491Z,1.67
2023-06-30T15:28:41.039Z,1.57
2023-06-30T15:32:46.675Z,1.60
2023-06-30T15:36:52.271Z,1.20
2023-06-30T15:40:59.936Z,1.30
2023-06-30T15:45:09.831Z,1.60
2023-06-30T15:49:15.357Z,1.97
2023-06-30T15:53:20.855Z,2.00
2023-06-30T15:57:26.400Z,1.40
2023-06-30T16:01:32.031Z,1.53
2023-06-30T16:05:37.710Z,2.40
2023-06-30T16:09:43.231Z,1.40
2023-06-30T16:13:48.944Z,1.00
2023-06-30T16:17:54.589Z,1.10
2023-06-30T16:22:00.125Z,1.20
2023-06-30T16:26:05.655Z,1.50
2023-06-30T16:30:26.057Z,1.20
2023-06-30T16:34:33.769Z,1.40
2023-06-30T16:38:40.740Z,1.37
2023-06-30T16:42:46.754Z,1.20
2023-06-30T16:46:52.305Z,1.40
2023-06-30T16:50:57.840Z,1.40
2023-06-30T16:55:04.636Z,1.10
2023-06-30T16:59:10.148Z,1.20
2023-06-30T17:03:15.723Z,1.40
2023-06-30T17:07:21.626Z,1.20
2023-06-30T17:11:27.497Z,1.00
2023-06-30T17:15:33.920Z,1.10
2023-06-30T17:19:39.754Z,1.10
2023-06-30T17:23:45.209Z,1.43
2023-06-30T17:27:51.031Z,1.27
2023-06-30T17:31:56.569Z,7.73
2023-06-30T17:36:02.080Z,7.50
2023-06-30T17:40:08.873Z,1.43
2023-06-30T17:44:14.345Z,1.27
2023-06-30T17:48:19.837Z,2.00
2023-06-30T17:52:25.318Z,1.10
2023-06-30T17:56:30.793Z,2.40
2023-06-30T18:00:36.317Z,1.60
2023-06-30T18:04:41.936Z,1.70
2023-06-30T18:08:47.583Z,1.20
2023-06-30T18:12:59.959Z,1.40
2023-06-30T18:17:06.572Z,1.10
2023-06-30T18:21:12.894Z,1.20
2023-06-30T18:25:18.582Z,1.47
2023-06-30T18:29:24.860Z,1.07
2023-06-30T18:33:30.469Z,1.00
2023-06-30T18:37:36.050Z,1.17
2023-06-30T18:41:41.702Z,1.40
2023-06-30T18:45:47.387Z,1.27
2023-06-30T18:49:53.146Z,1.30
2023-06-30T18:53:58.682Z,1.63
2023-06-30T18:58:04.222Z,1.90
2023-06-30T19:02:09.913Z,1.80
2023-06-30T19:06:15.926Z,1.70
2023-06-30T19:10:21.445Z,2.87
2023-06-30T19:14:27.268Z,1.80
2023-06-30T19:18:32.765Z,2.33
2023-06-30T19:22:38.308Z,1.70
2023-06-30T19:26:43.801Z,1.43
2023-06-30T19:30:50.451Z,1.47
2023-06-30T19:34:55.985Z,1.43
2023-06-30T19:39:01.491Z,1.60
2023-06-30T19:43:06.972Z,1.50
2023-06-30T19:47:12.510Z,1.60
2023-06-30T19:51:18.093Z,1.60
2023-06-30T19:55:23.662Z,1.60
2023-06-30T19:59:29.147Z,1.50
2023-06-30T20:03:34.837Z,1.60
2023-06-30T20:07:40.859Z,1.40
2023-06-30T20:11:46.788Z,1.40
2023-06-30T20:15:52.306Z,1.70
2023-06-30T20:19:57.868Z,1.40
2023-06-30T20:24:03.458Z,1.50
2023-06-30T20:28:08.988Z,1.57
2023-06-30T20:32:14.551Z,1.60
2023-06-30T20:36:20.110Z,1.60
2023-06-30T20:40:25.708Z,1.20
2023-06-30T20:44:31.392Z,1.33
2023-06-30T20:48:37.025Z,2.47
2023-06-30T20:52:42.535Z,2.27
2023-06-30T20:56:48.408Z,2.20
2023-06-30T21:00:53.917Z,1.70
2023-06-30T21:09:06.254Z,1.80
2023-06-30T21:13:11.797Z,1.70
2023-06-30T21:17:17.340Z,1.90
2023-06-30T21:21:22.859Z,2.10
2023-06-30T21:25:28.377Z,1.73
2023-06-30T21:29:33.879Z,1.83
2023-06-30T21:33:39.361Z,1.80
2023-06-30T21:37:44.864Z,1.70
2023-06-30T21:41:50.339Z,1.90
2023-06-30T21:45:58.881Z,2.00
2023-06-30T21:50:05.052Z,1.90
2023-06-30T21:54:10.552Z,1.90
2023-06-30T21:58:26.696Z,1.93
2023-06-30T22:02:33.640Z,2.22
2023-06-30T22:06:39.280Z,2.00
2023-06-30T22:10:45.116Z,1.80
2023-06-30T22:14:50.840Z,2.20
2023-06-30T22:18:56.372Z,2.30
2023-06-30T22:23:02.446Z,2.50
2023-06-30T22:27:07.943Z,2.13
2023-06-30T22:31:13.478Z,2.30
2023-06-30T22:35:19.303Z,2.30
2023-06-30T22:55:48.465Z,2.10
2023-06-30T22:59:54.336Z,2.07
2023-06-30T23:03:59.889Z,1.70
2023-06-30T23:08:05.618Z,1.73
2023-06-30T23:12:11.214Z,1.70
2023-06-30T23:16:16.755Z,1.70
2023-06-30T23:20:24.998Z,1.93
2023-06-30T23:24:30.687Z,1.70
2023-06-30T23:28:36.240Z,1.80
2023-06-30T23:32:47.277Z,1.80
2023-06-30T23:36:53.289Z,2.10
2023-06-30T23:40:58.821Z,1.97
2023-06-30T23:45:04.720Z,2.20
2023-06-30T23:49:10.166Z,2.10
2023-06-30T23:53:15.725Z,1.90
2023-06-30T23:57:21.255Z,2.20
